createdAt,value
2023-03-06T00:01:10.747Z,1.87
2023-03-06T00:03:38.804Z,2.00
2023-03-06T00:06:07.351Z,1.40
2023-03-06T00:08:35.396Z,1.60
2023-03-06T00:11:03.479Z,1.30
2023-03-06T00:13:32.163Z,1.80
2023-03-06T00:16:03.568Z,1.47
2023-03-06T00:18:33.849Z,1.73
2023-03-06T00:21:01.807Z,1.40
2023-03-06T00:23:29.919Z,1.47
2023-03-06T00:25:57.755Z,1.30
2023-03-06T00:28:25.719Z,1.20
2023-03-06T00:30:53.630Z,0.83
2023-03-06T00:33:21.615Z,1.40
2023-03-06T00:35:49.554Z,1.17
2023-03-06T00:38:17.794Z,1.03
2023-03-06T00:40:45.735Z,1.57
2023-03-06T00:43:13.787Z,1.20
2023-03-06T00:45:41.786Z,1.00
2023-03-06T00:48:09.750Z,1.10
2023-03-06T00:50:37.679Z,0.87
2023-03-06T00:53:05.567Z,1.20
2023-03-06T00:55:33.652Z,1.20
2023-03-06T00:58:01.619Z,1.37
2023-03-06T01:00:29.631Z,1.17
2023-03-06T01:02:57.592Z,1.10
2023-03-06T01:05:25.769Z,1.67
2023-03-06T01:07:53.992Z,1.53
2023-03-06T01:10:22.147Z,1.37
2023-03-06T01:12:50.143Z,2.03
2023-03-06T01:15:18.166Z,1.50
2023-03-06T01:17:46.345Z,1.23
2023-03-06T01:20:17.802Z,1.03
2023-03-06T01:22:45.866Z,2.03
2023-03-06T01:25:14.152Z,2.00
2023-03-06T01:27:42.059Z,2.23
2023-03-06T01:30:11.433Z,2.40
2023-03-06T01:32:39.521Z,2.13
2023-03-06T01:35:08.204Z,2.83
2023-03-06T01:37:37.654Z,2.70
2023-03-06T01:40:09.133Z,2.60
2023-03-06T01:42:37.298Z,3.43
2023-03-06T01:45:14.293Z,4.17
2023-03-06T01:47:42.675Z,4.70
2023-03-06T01:50:13.309Z,4.30
2023-03-06T01:52:58.126Z,3.97
2023-03-06T01:55:33.852Z,6.03
2023-03-06T01:58:08.864Z,4.67
2023-03-06T02:00:36.930Z,4.57
2023-03-06T02:03:12.340Z,5.47
2023-03-06T02:05:42.531Z,7.50
2023-03-06T02:08:15.066Z,6.00
2023-03-06T02:11:06.880Z,7.70
2023-03-06T02:13:36.853Z,6.27
2023-03-06T02:16:08.758Z,6.10
2023-03-06T02:18:38.244Z,6.07
2023-03-06T02:21:12.195Z,6.13
2023-03-06T02:24:39.329Z,6.87
2023-03-06T02:27:09.964Z,7.90
2023-03-06T02:29:38.295Z,9.77
2023-03-06T02:32:07.050Z,10.67
2023-03-06T02:34:51.299Z,10.43
2023-03-06T02:37:19.959Z,7.47
2023-03-06T02:40:03.310Z,12.00
2023-03-06T02:42:32.823Z,10.23
2023-03-06T02:45:03.683Z,11.23
2023-03-06T02:47:33.148Z,10.20
2023-03-06T02:50:01.127Z,9.93
2023-03-06T02:52:29.236Z,10.90
2023-03-06T02:54:57.414Z,11.30
2023-03-06T02:57:25.876Z,10.77
2023-03-06T02:59:54.101Z,10.57
2023-03-06T03:02:22.296Z,10.83
2023-03-06T03:04:50.341Z,11.27
2023-03-06T03:07:18.561Z,10.23
2023-03-06T03:09:46.562Z,9.27
2023-03-06T03:12:14.640Z,9.83
2023-03-06T03:14:42.651Z,10.50
2023-03-06T03:17:10.626Z,10.50
2023-03-06T03:19:38.690Z,11.23
2023-03-06T03:22:07.532Z,10.07
2023-03-06T03:24:35.608Z,9.83
2023-03-06T03:27:03.875Z,9.10
2023-03-06T03:29:32.813Z,7.90
2023-03-06T03:32:24.321Z,7.67
2023-03-06T03:34:55.120Z,7.07
2023-03-06T03:37:23.238Z,7.37
2023-03-06T03:39:51.331Z,6.93
2023-03-06T03:42:22.729Z,7.25
2023-03-06T03:44:50.755Z,7.13
2023-03-06T03:47:18.954Z,6.83
2023-03-06T03:49:47.136Z,9.70
2023-03-06T03:52:18.505Z,10.20
2023-03-06T03:54:46.662Z,10.00
2023-03-06T03:57:17.771Z,11.60
2023-03-06T03:59:52.359Z,11.20
2023-03-06T04:02:23.855Z,11.07
2023-03-06T04:04:55.388Z,10.80
2023-03-06T04:07:23.363Z,10.27
2023-03-06T04:09:51.534Z,10.20
2023-03-06T04:12:20.184Z,8.93
2023-03-06T04:14:51.331Z,8.10
2023-03-06T04:17:35.077Z,6.73
2023-03-06T04:20:04.927Z,7.23
2023-03-06T04:22:36.647Z,6.40
2023-03-06T04:25:05.844Z,7.33
2023-03-06T04:27:34.243Z,7.43
2023-03-06T04:30:02.599Z,6.97
2023-03-06T04:32:33.736Z,6.87
2023-03-06T04:35:02.372Z,6.73
2023-03-06T04:38:01.321Z,6.43
2023-03-06T04:40:44.997Z,6.17
2023-03-06T04:43:22.875Z,7.13
2023-03-06T04:45:53.816Z,5.80
2023-03-06T04:48:22.348Z,5.07
2023-03-06T04:50:50.677Z,3.67
2023-03-06T04:53:22.237Z,5.63
2023-03-06T04:55:50.769Z,4.20
2023-03-06T04:58:22.349Z,5.20
2023-03-06T05:00:51.132Z,4.90
2023-03-06T05:03:19.807Z,5.87
2023-03-06T05:05:51.122Z,4.90
2023-03-06T05:08:20.116Z,6.20
2023-03-06T05:11:01.933Z,6.67
2023-03-06T05:13:30.847Z,6.40
2023-03-06T05:16:07.549Z,7.77
2023-03-06T05:18:37.287Z,7.17
2023-03-06T05:21:10.382Z,7.40
2023-03-06T05:23:48.200Z,7.47
2023-03-06T05:26:28.345Z,7.60
2023-03-06T05:28:57.019Z,7.50
2023-03-06T05:31:26.649Z,7.47
2023-03-06T05:34:04.173Z,7.70
2023-03-06T05:36:39.692Z,7.60
2023-03-06T05:39:11.457Z,7.20
2023-03-06T05:41:42.860Z,5.30
2023-03-06T05:44:14.566Z,7.13
2023-03-06T05:46:50.918Z,6.10
2023-03-06T05:49:21.882Z,5.43
2023-03-06T05:51:50.602Z,5.13
2023-03-06T05:54:22.725Z,5.03
2023-03-06T05:56:59.854Z,4.20
2023-03-06T05:59:29.206Z,5.20
2023-03-06T06:01:58.067Z,4.67
2023-03-06T06:04:28.434Z,5.73
2023-03-06T06:07:00.427Z,5.80
2023-03-06T06:09:32.663Z,3.90
2023-03-06T06:12:03.834Z,4.60
2023-03-06T06:14:38.745Z,3.77
2023-03-06T06:17:07.868Z,3.77
2023-03-06T06:19:39.837Z,4.37
2023-03-06T06:22:08.442Z,3.97
2023-03-06T06:24:39.637Z,4.10
2023-03-06T06:27:08.725Z,3.90
2023-03-06T06:29:36.888Z,4.40
2023-03-06T06:32:05.523Z,4.67
2023-03-06T06:34:34.227Z,4.47
2023-03-06T06:37:02.206Z,5.23
2023-03-06T06:39:30.502Z,5.30
2023-03-06T06:42:19.472Z,5.40
2023-03-06T06:44:46.479Z,5.43
2023-03-06T06:47:24.058Z,4.60
2023-03-06T06:49:55.831Z,4.73
2023-03-06T06:52:25.493Z,4.03
2023-03-06T06:54:54.174Z,3.37
2023-03-06T06:57:22.433Z,3.17
2023-03-06T06:59:52.519Z,6.40
2023-03-06T07:02:22.731Z,8.00
2023-03-06T07:05:03.031Z,5.97
2023-03-06T07:07:36.889Z,3.47
2023-03-06T07:10:13.711Z,3.63
2023-03-06T07:12:41.997Z,3.03
2023-03-06T07:15:15.700Z,3.40
2023-03-06T07:17:44.091Z,3.20
2023-03-06T07:20:12.732Z,3.43
2023-03-06T07:22:50.689Z,3.30
2023-03-06T07:25:21.565Z,3.33
2023-03-06T07:27:55.021Z,3.43
2023-03-06T07:30:27.832Z,3.70
2023-03-06T07:33:00.080Z,3.60
2023-03-06T07:35:28.723Z,3.63
2023-03-06T07:38:01.080Z,4.27
2023-03-06T07:40:29.590Z,4.50
2023-03-06T07:43:13.032Z,4.53
2023-03-06T07:45:47.153Z,4.93
2023-03-06T07:48:15.490Z,4.60
2023-03-06T07:50:43.660Z,4.33
2023-03-06T07:53:14.490Z,3.87
2023-03-06T07:55:45.084Z,3.67
2023-03-06T07:58:13.309Z,3.90
2023-03-06T08:00:43.974Z,5.03
2023-03-06T08:03:13.463Z,3.67
2023-03-06T08:05:46.063Z,4.20
2023-03-06T08:08:14.168Z,3.40
2023-03-06T08:10:47.506Z,3.63
2023-03-06T08:13:15.630Z,3.90
2023-03-06T08:15:49.373Z,3.63
2023-03-06T08:18:17.683Z,3.40
2023-03-06T08:20:46.149Z,3.47
2023-03-06T08:23:14.131Z,3.60
2023-03-06T08:25:42.091Z,2.60
2023-03-06T08:28:10.176Z,2.63
2023-03-06T08:30:38.138Z,2.80
2023-03-06T08:33:06.150Z,2.47
2023-03-06T08:35:34.195Z,2.80
2023-03-06T08:38:02.290Z,2.50
2023-03-06T08:40:30.522Z,2.53
2023-03-06T08:42:58.423Z,3.10
2023-03-06T08:45:26.454Z,2.43
2023-03-06T08:47:54.445Z,2.17
2023-03-06T08:50:22.490Z,2.23
2023-03-06T08:52:50.414Z,2.50
2023-03-06T08:55:18.616Z,2.53
2023-03-06T08:57:49.291Z,2.23
2023-03-06T09:00:18.726Z,3.60
2023-03-06T09:02:46.681Z,2.73
2023-03-06T09:05:15.187Z,2.60
2023-03-06T09:07:43.289Z,2.47
2023-03-06T09:10:22.958Z,2.60
2023-03-06T09:12:54.789Z,2.40
2023-03-06T09:15:24.604Z,2.30
2023-03-06T09:17:54.222Z,2.30
2023-03-06T09:20:22.703Z,2.00
2023-03-06T09:22:50.635Z,2.27
2023-03-06T09:25:20.526Z,2.40
2023-03-06T09:28:01.928Z,2.23
2023-03-06T09:30:36.995Z,2.27
2023-03-06T09:33:04.967Z,3.00
2023-03-06T09:35:33.164Z,2.90
2023-03-06T09:38:01.148Z,3.20
2023-03-06T09:41:05.733Z,2.80
2023-03-06T09:43:40.477Z,2.37
2023-03-06T09:46:55.560Z,2.73
2023-03-06T09:49:49.223Z,2.43
2023-03-06T09:53:06.648Z,2.63
2023-03-06T09:55:40.267Z,1.67
2023-03-06T09:58:20.834Z,2.10
2023-03-06T10:01:31.673Z,1.93
2023-03-06T10:04:11.437Z,2.20
2023-03-06T10:06:58.261Z,2.10
2023-03-06T10:10:04.243Z,2.13
2023-03-06T10:12:48.289Z,2.00
2023-03-06T10:15:31.214Z,2.03
2023-03-06T10:17:59.129Z,1.80
2023-03-06T10:20:38.009Z,1.93
2023-03-06T10:23:58.418Z,2.00
2023-03-06T10:26:40.271Z,2.00
2023-03-06T10:30:02.782Z,1.27
2023-03-06T10:32:49.823Z,1.20
2023-03-06T10:35:50.462Z,0.87
2023-03-06T10:38:25.861Z,1.30
2023-03-06T10:41:23.793Z,1.10
2023-03-06T10:44:01.028Z,0.97
2023-03-06T10:46:58.356Z,0.90
2023-03-06T10:49:35.472Z,0.97
2023-03-06T10:52:15.472Z,0.70
2023-03-06T10:54:48.348Z,1.17
2023-03-06T10:57:33.000Z,15.37
2023-03-06T11:00:30.493Z,2.93
2023-03-06T11:03:19.680Z,1.43
2023-03-06T11:06:02.730Z,1.03
2023-03-06T11:08:31.782Z,1.43
2023-03-06T11:11:11.053Z,2.40
2023-03-06T11:13:43.704Z,2.27
2023-03-06T11:16:51.995Z,1.83
2023-03-06T11:19:28.191Z,1.27
2023-03-06T11:22:25.891Z,1.70
2023-03-06T11:24:54.990Z,1.80
2023-03-06T11:27:34.814Z,2.30
2023-03-06T11:30:32.902Z,1.10
2023-03-06T11:33:27.276Z,5.97
2023-03-06T11:36:12.855Z,1.30
2023-03-06T11:38:53.994Z,2.67
2023-03-06T11:42:10.613Z,3.57
2023-03-06T11:45:38.281Z,0.80
2023-03-06T11:48:14.880Z,1.83
2023-03-06T11:50:55.399Z,1.00
2023-03-06T11:53:37.835Z,0.83
2023-03-06T11:56:20.620Z,1.20
2023-03-06T11:59:32.447Z,1.13
2023-03-06T12:02:59.161Z,1.40
2023-03-06T12:05:53.888Z,1.20
2023-03-06T12:09:14.477Z,0.80
2023-03-06T12:12:07.409Z,1.20
2023-03-06T12:15:20.012Z,0.70
2023-03-06T12:18:32.393Z,0.50
2023-03-06T12:21:41.393Z,0.37
2023-03-06T12:24:47.904Z,0.90
2023-03-06T12:28:12.698Z,0.73
2023-03-06T12:31:31.317Z,1.10
2023-03-06T12:34:29.743Z,1.70
2023-03-06T12:37:28.953Z,0.60
2023-03-06T12:40:32.443Z,1.10
2023-03-06T12:43:59.795Z,1.43
2023-03-06T12:46:30.441Z,0.50
2023-03-06T12:49:32.377Z,0.50
2023-03-06T12:52:02.402Z,0.53
2023-03-06T12:54:36.138Z,0.67
2023-03-06T12:57:08.829Z,0.63
2023-03-06T12:59:49.127Z,0.80
2023-03-06T13:03:05.856Z,1.43
2023-03-06T13:06:50.258Z,0.73
2023-03-06T13:10:07.417Z,0.83
2023-03-06T13:13:05.084Z,0.50
2023-03-06T13:15:45.597Z,1.33
2023-03-06T13:18:22.816Z,1.10
2023-03-06T13:20:56.397Z,0.60
2023-03-06T13:23:33.425Z,0.73
2023-03-06T13:26:09.043Z,1.10
2023-03-06T13:28:50.679Z,1.27
2023-03-06T13:31:33.391Z,0.63
2023-03-06T13:34:03.564Z,0.80
2023-03-06T13:36:39.748Z,0.80
2023-03-06T13:39:12.883Z,1.00
2023-03-06T13:41:59.026Z,0.80
2023-03-06T13:44:26.827Z,0.80
2023-03-06T13:48:15.833Z,0.63
2023-03-06T13:50:49.636Z,0.93
2023-03-06T13:53:33.099Z,0.93
2023-03-06T13:56:31.487Z,0.97
2023-03-06T14:00:03.064Z,1.10
2023-03-06T14:03:36.204Z,0.90
2023-03-06T14:06:37.125Z,1.27
2023-03-06T14:09:41.292Z,1.00
2023-03-06T14:12:25.888Z,0.70
2023-03-06T14:15:00.146Z,1.00
2023-03-06T14:17:42.218Z,0.73
2023-03-06T14:20:19.641Z,1.50
2023-03-06T14:22:50.474Z,0.90
2023-03-06T14:25:34.059Z,1.20
2023-03-06T14:28:12.565Z,1.10
2023-03-06T14:30:51.545Z,0.90
2023-03-06T14:33:53.322Z,0.80
2023-03-06T14:36:32.387Z,1.50
2023-03-06T14:39:22.356Z,1.17
2023-03-06T14:41:50.712Z,0.77
2023-03-06T14:44:26.450Z,0.93
2023-03-06T14:47:11.191Z,0.70
2023-03-06T14:49:39.437Z,0.90
2023-03-06T14:52:23.347Z,1.20
2023-03-06T14:54:59.814Z,1.33
2023-03-06T14:57:28.380Z,0.93
2023-03-06T14:59:59.503Z,1.30
2023-03-06T15:02:30.058Z,0.97
2023-03-06T15:05:27.181Z,0.60
2023-03-06T15:08:02.436Z,0.77
2023-03-06T15:10:34.499Z,0.70
2023-03-06T15:13:36.063Z,1.07
2023-03-06T15:16:19.080Z,0.60
2023-03-06T15:19:02.396Z,0.53
2023-03-06T15:21:38.749Z,0.70
2023-03-06T15:24:36.738Z,1.10
2023-03-06T15:27:16.367Z,1.10
2023-03-06T15:29:44.399Z,0.50
2023-03-06T15:32:33.073Z,0.60
2023-03-06T15:35:27.551Z,0.63
2023-03-06T15:37:57.983Z,0.43
2023-03-06T15:40:33.224Z,0.30
2023-03-06T15:43:10.612Z,0.70
2023-03-06T15:45:38.936Z,0.60
2023-03-06T15:48:17.819Z,0.80
2023-03-06T15:50:45.859Z,0.60
2023-03-06T15:53:14.077Z,1.00
2023-03-06T15:55:42.328Z,0.70
2023-03-06T15:58:24.814Z,0.50
2023-03-06T16:00:53.287Z,0.67
2023-03-06T16:03:21.895Z,1.00
2023-03-06T16:05:50.134Z,0.90
2023-03-06T16:08:18.142Z,1.10
2023-03-06T16:10:47.112Z,0.90
2023-03-06T16:13:27.851Z,0.60
2023-03-06T16:15:55.883Z,0.60
2023-03-06T16:18:26.931Z,0.90
2023-03-06T16:20:55.015Z,0.93
2023-03-06T16:23:25.722Z,0.87
2023-03-06T16:25:53.677Z,0.80
2023-03-06T16:28:21.648Z,1.00
2023-03-06T16:30:49.634Z,1.20
2023-03-06T16:33:17.600Z,2.27
2023-03-06T16:35:49.988Z,2.23
2023-03-06T16:38:20.566Z,1.53
2023-03-06T16:40:48.741Z,1.53
2023-03-06T16:43:17.474Z,1.47
2023-03-06T16:45:45.553Z,1.80
2023-03-06T16:48:16.922Z,1.40
2023-03-06T16:50:45.365Z,1.47
2023-03-06T16:53:13.894Z,1.20
2023-03-06T16:55:42.464Z,0.80
2023-03-06T16:58:16.193Z,0.90
2023-03-06T17:00:44.492Z,1.83
2023-03-06T17:03:12.581Z,3.60
2023-03-06T17:05:43.048Z,4.10
2023-03-06T17:08:12.324Z,2.60
2023-03-06T17:10:43.373Z,1.80
2023-03-06T17:13:11.993Z,3.30
2023-03-06T17:15:40.059Z,8.17
2023-03-06T17:18:08.154Z,3.17
2023-03-06T17:20:36.185Z,6.57
2023-03-06T17:23:04.042Z,3.40
2023-03-06T17:25:34.468Z,4.10
2023-03-06T17:28:02.787Z,2.37
2023-03-06T17:30:30.870Z,1.93
2023-03-06T17:32:58.832Z,2.93
2023-03-06T17:35:26.785Z,1.90
2023-03-06T17:37:55.060Z,2.17
2023-03-06T17:40:23.260Z,4.00
2023-03-06T17:42:51.471Z,4.57
2023-03-06T17:45:22.575Z,6.30
2023-03-06T17:47:54.373Z,5.77
2023-03-06T17:50:22.431Z,4.50
2023-03-06T17:52:50.425Z,3.93
2023-03-06T17:55:21.680Z,3.20
2023-03-06T17:57:52.500Z,3.90
2023-03-06T18:00:22.946Z,3.80
2023-03-06T18:02:50.899Z,3.77
2023-03-06T18:05:20.765Z,3.23
2023-03-06T18:07:48.736Z,2.73
2023-03-06T18:10:16.984Z,2.97
2023-03-06T18:12:46.186Z,2.67
2023-03-06T18:15:16.658Z,2.80
2023-03-06T18:17:48.596Z,2.73
2023-03-06T18:20:17.070Z,2.03
2023-03-06T18:22:44.967Z,1.57
2023-03-06T18:25:13.038Z,1.73
2023-03-06T18:27:41.124Z,1.87
2023-03-06T18:30:10.360Z,1.27
2023-03-06T18:32:38.556Z,2.20
2023-03-06T18:35:09.218Z,1.73
2023-03-06T18:37:37.208Z,3.23
2023-03-06T18:40:06.607Z,2.10
2023-03-06T18:42:34.532Z,2.10
2023-03-06T18:45:03.113Z,1.47
2023-03-06T18:47:31.314Z,1.70
2023-03-06T18:49:59.340Z,1.70
2023-03-06T18:52:27.240Z,3.83
2023-03-06T18:54:55.210Z,3.13
2023-03-06T18:57:23.452Z,4.60
2023-03-06T18:59:51.818Z,5.50
2023-03-06T19:02:20.072Z,3.77
2023-03-06T19:04:48.109Z,3.80
2023-03-06T19:07:16.602Z,4.37
2023-03-06T19:09:45.164Z,4.73
2023-03-06T19:12:13.033Z,4.57
2023-03-06T19:14:40.980Z,3.83
2023-03-06T19:17:08.900Z,4.43
2023-03-06T19:19:36.814Z,4.53
2023-03-06T19:22:04.867Z,4.33
2023-03-06T19:24:32.837Z,4.90
2023-03-06T19:27:00.767Z,4.23
2023-03-06T19:29:28.813Z,4.13
2023-03-06T19:31:57.424Z,3.90
2023-03-06T19:34:25.978Z,4.33
2023-03-06T19:36:53.940Z,4.13
2023-03-06T19:39:22.000Z,3.77
2023-03-06T19:41:49.957Z,3.60
2023-03-06T19:44:17.951Z,3.20
2023-03-06T19:46:45.922Z,3.50
2023-03-06T19:49:17.976Z,4.43
2023-03-06T19:51:46.048Z,3.67
2023-03-06T19:54:14.956Z,3.47
2023-03-06T19:56:46.085Z,4.33
2023-03-06T19:59:14.064Z,5.07
2023-03-06T20:01:41.974Z,3.53
2023-03-06T20:04:10.136Z,4.27
2023-03-06T20:06:38.831Z,4.30
2023-03-06T20:09:12.144Z,4.80
2023-03-06T20:11:40.231Z,4.80
2023-03-06T20:14:10.852Z,5.13
2023-03-06T20:16:39.478Z,5.40
2023-03-06T20:19:08.663Z,5.77
2023-03-06T20:21:38.374Z,6.17
2023-03-06T20:24:09.920Z,6.33
2023-03-06T20:26:38.522Z,6.03
2023-03-06T20:29:06.638Z,6.93
2023-03-06T20:31:34.635Z,7.67
2023-03-06T20:34:03.930Z,6.90
2023-03-06T20:36:40.427Z,5.60
2023-03-06T20:39:14.439Z,7.20
2023-03-06T20:41:43.409Z,6.33
2023-03-06T20:44:17.985Z,7.00
2023-03-06T20:46:46.643Z,6.43
2023-03-06T20:49:15.573Z,7.10
2023-03-06T20:51:44.385Z,7.43
2023-03-06T20:54:16.225Z,6.73
2023-03-06T20:56:49.036Z,6.43
2023-03-06T20:59:17.864Z,6.20
2023-03-06T21:01:47.937Z,5.70
2023-03-06T21:04:19.196Z,6.00
2023-03-06T21:06:47.613Z,6.80
2023-03-06T21:09:17.256Z,6.43
2023-03-06T21:11:46.454Z,6.43
2023-03-06T21:14:15.617Z,6.93
2023-03-06T21:16:44.353Z,7.13
2023-03-06T21:19:13.053Z,7.77
2023-03-06T21:21:41.093Z,7.13
2023-03-06T21:24:09.702Z,7.77
2023-03-06T21:26:37.879Z,8.07
2023-03-06T21:29:08.544Z,8.30
2023-03-06T21:31:36.651Z,8.40
2023-03-06T21:34:05.453Z,8.80
2023-03-06T21:36:35.994Z,9.37
2023-03-06T21:39:06.284Z,9.10
2023-03-06T21:41:34.516Z,8.30
2023-03-06T21:44:05.732Z,8.50
2023-03-06T21:46:35.367Z,8.17
2023-03-06T21:49:05.630Z,9.00
2023-03-06T21:51:33.966Z,8.17
2023-03-06T21:54:02.888Z,9.30
2023-03-06T21:56:33.015Z,9.07
2023-03-06T21:59:01.150Z,8.80
2023-03-06T22:01:29.616Z,9.00
2023-03-06T22:03:58.907Z,8.97
2023-03-06T22:06:30.670Z,9.03
2023-03-06T22:09:00.501Z,7.50
2023-03-06T22:11:31.328Z,8.57
2023-03-06T22:13:59.462Z,8.93
2023-03-06T22:16:27.604Z,9.20
2023-03-06T22:18:55.744Z,8.83
2023-03-06T22:21:24.018Z,7.70
2023-03-06T22:23:57.447Z,8.40
2023-03-06T22:26:31.290Z,7.07
2023-03-06T22:28:59.228Z,8.87
2023-03-06T22:31:32.163Z,9.03
2023-03-06T22:34:01.668Z,7.37
2023-03-06T22:36:31.266Z,7.43
2023-03-06T22:39:01.971Z,7.87
2023-03-06T22:41:31.030Z,9.83
2023-03-06T22:44:01.825Z,7.47
2023-03-06T22:46:33.646Z,7.50
2023-03-06T22:49:05.049Z,8.47
2023-03-06T22:51:33.226Z,8.47
2023-03-06T22:54:01.117Z,7.20
2023-03-06T22:56:29.403Z,8.70
2023-03-06T22:58:57.769Z,7.73
2023-03-06T23:01:30.665Z,7.67
2023-03-06T23:04:03.130Z,8.40
2023-03-06T23:06:39.681Z,7.93
2023-03-06T23:09:23.478Z,7.57
2023-03-06T23:11:51.967Z,8.73
2023-03-06T23:14:20.349Z,8.00
2023-03-06T23:16:48.359Z,8.10
2023-03-06T23:19:17.291Z,8.17
2023-03-06T23:21:45.323Z,9.00
2023-03-06T23:24:13.811Z,7.40
2023-03-06T23:26:41.769Z,7.47
2023-03-06T23:29:09.797Z,6.90
2023-03-06T23:31:37.943Z,7.90
2023-03-06T23:34:06.097Z,6.33
2023-03-06T23:36:34.004Z,7.63
2023-03-06T23:39:02.120Z,7.17
2023-03-06T23:41:32.458Z,6.83
2023-03-06T23:44:00.688Z,7.13
2023-03-06T23:46:34.303Z,7.10
2023-03-06T23:49:02.315Z,8.03
2023-03-06T23:51:33.613Z,6.20
2023-03-06T23:54:01.871Z,6.70
2023-03-06T23:56:29.834Z,6.77
2023-03-06T23:59:01.084Z,6.80
